createdAt,value
2018-04-02T00:00:02.250Z,19.44
2018-04-02T00:01:02.271Z,19.45
2018-04-02T00:02:02.229Z,19.46
2018-04-02T00:03:02.272Z,19.43
2018-04-02T00:04:02.218Z,19.42
2018-04-02T00:05:02.229Z,19.44
2018-04-02T00:06:02.278Z,19.42
2018-04-02T00:07:02.228Z,19.42
2018-04-02T00:08:02.229Z,19.43
2018-04-02T00:09:02.247Z,19.41
2018-04-02T00:10:02.221Z,19.41
2018-04-02T00:11:02.336Z,19.42
2018-04-02T00:12:02.224Z,19.39
2018-04-02T00:13:02.226Z,19.39
2018-04-02T00:14:02.255Z,19.42
2018-04-02T00:15:02.227Z,19.4
2018-04-02T00:16:02.265Z,19.38
2018-04-02T00:17:02.227Z,19.41
2018-04-02T00:18:02.235Z,19.39
2018-04-02T00:19:02.231Z,19.37
2018-04-02T00:20:02.223Z,19.4
2018-04-02T00:21:02.268Z,19.37
2018-04-02T00:22:02.242Z,19.38
2018-04-02T00:23:02.251Z,19.4
2018-04-02T00:24:02.278Z,19.38
2018-04-02T00:25:02.252Z,19.36
2018-04-02T00:26:02.260Z,19.39
2018-04-02T00:27:02.251Z,19.38
2018-04-02T00:28:02.215Z,19.38
2018-04-02T00:29:02.250Z,19.38
2018-04-02T00:30:02.246Z,19.36
2018-04-02T00:31:02.214Z,19.34
2018-04-02T00:32:02.271Z,19.36
2018-04-02T00:33:02.230Z,19.33
2018-04-02T00:34:02.221Z,19.32
2018-04-02T00:35:02.249Z,19.35
2018-04-02T00:36:02.233Z,19.32
2018-04-02T00:37:02.360Z,19.33
2018-04-02T00:38:02.234Z,19.34
2018-04-02T00:39:02.214Z,19.33
2018-04-02T00:40:02.231Z,19.32
2018-04-02T00:41:02.230Z,19.33
2018-04-02T00:42:02.323Z,19.32
2018-04-02T00:43:02.215Z,19.32
2018-04-02T00:44:02.214Z,19.33
2018-04-02T00:45:02.215Z,19.29
2018-04-02T00:46:02.495Z,19.3
2018-04-02T00:47:02.246Z,19.31
2018-04-02T00:48:02.241Z,19.27
2018-04-02T00:49:02.207Z,19.28
2018-04-02T00:50:02.214Z,19.3
2018-04-02T00:51:02.280Z,19.27
2018-04-02T00:52:02.212Z,19.26
2018-04-02T00:53:02.341Z,19.28
2018-04-02T00:54:02.330Z,19.27
2018-04-02T00:55:02.203Z,19.24
2018-04-02T00:56:02.217Z,19.28
2018-04-02T00:57:02.223Z,19.24
2018-04-02T00:58:02.316Z,19.24
2018-04-02T00:59:02.241Z,19.26
2018-04-02T01:00:02.232Z,19.24
2018-04-02T01:01:02.195Z,19.23
2018-04-02T01:02:02.228Z,19.25
2018-04-02T01:03:02.256Z,19.24
2018-04-02T01:04:02.211Z,19.23
2018-04-02T01:05:02.194Z,19.26
2018-04-02T01:06:02.238Z,19.23
2018-04-02T01:07:02.251Z,19.22
2018-04-02T01:08:02.460Z,19.25
2018-04-02T01:09:02.211Z,19.23
2018-04-02T01:10:02.216Z,19.2
2018-04-02T01:11:02.232Z,19.24
2018-04-02T01:12:02.230Z,19.21
2018-04-02T01:13:02.278Z,19.2
2018-04-02T01:14:02.231Z,19.22
2018-04-02T01:15:02.234Z,19.21
2018-04-02T01:16:02.196Z,19.18
2018-04-02T01:17:02.226Z,19.23
2018-04-02T01:18:02.202Z,19.22
2018-04-02T01:19:02.200Z,19.21
2018-04-02T01:20:02.227Z,19.21
2018-04-02T01:21:02.228Z,19.2
2018-04-02T01:22:02.210Z,19.18
2018-04-02T01:23:02.224Z,19.2
2018-04-02T01:24:02.376Z,19.19
2018-04-02T01:25:02.222Z,19.19
2018-04-02T01:26:02.248Z,19.19
2018-04-02T01:27:02.210Z,19.17
2018-04-02T01:28:02.201Z,19.17
2018-04-02T01:29:02.250Z,19.18
2018-04-02T01:30:02.201Z,19.16
2018-04-02T01:31:02.209Z,19.16
2018-04-02T01:32:02.228Z,19.19
2018-04-02T01:33:02.195Z,19.15
2018-04-02T01:34:02.481Z,19.15
2018-04-02T01:35:02.226Z,19.17
2018-04-02T01:36:02.223Z,19.15
2018-04-02T01:37:02.209Z,19.14
2018-04-02T01:38:02.226Z,19.17
2018-04-02T01:39:02.246Z,19.14
2018-04-02T01:40:02.190Z,19.13
2018-04-02T01:41:02.238Z,19.15
2018-04-02T01:42:02.199Z,19.13
2018-04-02T01:43:02.216Z,19.13
2018-04-02T01:44:02.306Z,19.15
2018-04-02T01:45:02.210Z,19.13
2018-04-02T01:46:02.199Z,19.12
2018-04-02T01:47:02.229Z,19.15
2018-04-02T01:48:02.199Z,19.14
2018-04-02T01:49:02.218Z,19.12
2018-04-02T01:50:02.240Z,19.14
2018-04-02T01:51:02.200Z,19.12
2018-04-02T01:52:02.190Z,19.11
2018-04-02T01:53:02.203Z,19.13
2018-04-02T01:54:02.267Z,19.11
2018-04-02T01:55:02.212Z,19.11
2018-04-02T01:56:02.207Z,19.12
2018-04-02T01:57:02.197Z,19.11
2018-04-02T01:58:02.190Z,19.1
2018-04-02T01:59:02.226Z,19.12
2018-04-02T02:00:02.203Z,19.1
2018-04-02T02:01:02.206Z,19.09
2018-04-02T02:02:02.220Z,19.11
2018-04-02T02:03:02.215Z,19.08
2018-04-02T02:04:02.232Z,19.08
2018-04-02T02:05:02.196Z,19.09
2018-04-02T02:06:02.220Z,19.07
2018-04-02T02:07:02.184Z,19.08
2018-04-02T02:08:02.190Z,19.09
2018-04-02T02:09:02.232Z,19.08
2018-04-02T02:10:02.206Z,19.07
2018-04-02T02:11:02.457Z,19.09
2018-04-02T02:12:02.186Z,19.07
2018-04-02T02:13:02.199Z,19.06
2018-04-02T02:14:02.207Z,19.09
2018-04-02T02:15:02.289Z,19.08
2018-04-02T02:16:02.201Z,19.08
2018-04-02T02:17:02.171Z,19.08
2018-04-02T02:18:02.220Z,19.06
2018-04-02T02:19:02.173Z,19.07
2018-04-02T02:20:02.218Z,19.07
2018-04-02T02:21:02.241Z,19.07
2018-04-02T02:22:02.183Z,19.07
2018-04-02T02:23:02.208Z,19.07
2018-04-02T02:24:02.203Z,19.07
2018-04-02T02:25:02.196Z,19.05
2018-04-02T02:26:02.217Z,19.07
2018-04-02T02:27:02.231Z,19.06
2018-04-02T02:28:02.194Z,19.03
2018-04-02T02:29:02.188Z,19.06
2018-04-02T02:30:02.215Z,19.04
2018-04-02T02:31:02.190Z,19.04
2018-04-02T02:32:02.213Z,19.05
2018-04-02T02:33:02.204Z,19.03
2018-04-02T02:34:02.180Z,19.04
2018-04-02T02:35:02.292Z,19.04
2018-04-02T02:36:02.376Z,19.02
2018-04-02T02:37:02.175Z,19.01
2018-04-02T02:38:02.213Z,19.03
2018-04-02T02:39:02.190Z,19.03
2018-04-02T02:40:02.153Z,19.02
2018-04-02T02:41:02.216Z,19.04
2018-04-02T02:42:02.211Z,19.02
2018-04-02T02:43:02.179Z,19.03
2018-04-02T02:44:02.207Z,19.03
2018-04-02T02:45:02.201Z,19.03
2018-04-02T02:46:02.268Z,19
2018-04-02T02:47:02.191Z,19.01
2018-04-02T02:48:02.175Z,18.99
2018-04-02T02:49:02.182Z,18.99
2018-04-02T02:50:02.200Z,19.01
2018-04-02T02:51:02.231Z,19
2018-04-02T02:52:02.172Z,18.99
2018-04-02T02:53:02.207Z,19
2018-04-02T02:54:02.281Z,18.99
2018-04-02T02:55:02.270Z,18.99
2018-04-02T02:56:02.219Z,19
2018-04-02T02:57:02.221Z,18.98
2018-04-02T02:58:02.174Z,18.99
2018-04-02T02:59:02.197Z,19
2018-04-02T03:00:02.169Z,18.98
2018-04-02T03:01:02.175Z,19
2018-04-02T03:02:02.227Z,19
2018-04-02T03:03:02.182Z,18.98
2018-04-02T03:04:02.180Z,18.97
2018-04-02T03:05:02.201Z,18.99
2018-04-02T03:06:02.169Z,18.97
2018-04-02T03:07:02.448Z,18.97
2018-04-02T03:08:02.218Z,18.98
2018-04-02T03:09:02.211Z,18.97
2018-04-02T03:10:02.180Z,18.97
2018-04-02T03:11:02.219Z,18.97
2018-04-02T03:12:02.232Z,18.97
2018-04-02T03:13:02.168Z,18.96
2018-04-02T03:14:02.188Z,18.97
2018-04-02T03:15:02.170Z,18.96
2018-04-02T03:16:02.163Z,18.94
2018-04-02T03:17:02.246Z,18.96
2018-04-02T03:18:02.191Z,18.95
2018-04-02T03:19:02.183Z,18.95
2018-04-02T03:20:02.200Z,18.96
2018-04-02T03:21:02.165Z,18.96
2018-04-02T03:22:02.185Z,18.93
2018-04-02T03:23:02.179Z,18.95
2018-04-02T03:24:02.193Z,18.94
2018-04-02T03:25:02.167Z,18.92
2018-04-02T03:26:02.193Z,18.94
2018-04-02T03:27:02.212Z,18.93
2018-04-02T03:28:02.167Z,18.92
2018-04-02T03:29:02.169Z,18.94
2018-04-02T03:30:02.163Z,18.93
2018-04-02T03:31:02.161Z,18.92
2018-04-02T03:32:02.184Z,18.93
2018-04-02T03:33:02.184Z,18.91
2018-04-02T03:34:02.198Z,18.92
2018-04-02T03:35:02.192Z,18.92
2018-04-02T03:36:02.183Z,18.92
2018-04-02T03:37:02.159Z,18.9
2018-04-02T03:38:02.190Z,18.92
2018-04-02T03:39:02.199Z,18.89
2018-04-02T03:40:02.176Z,18.88
2018-04-02T03:41:02.191Z,18.89
2018-04-02T03:42:02.184Z,18.88
2018-04-02T03:43:02.159Z,18.89
2018-04-02T03:44:02.200Z,18.9
2018-04-02T03:45:02.176Z,18.9
2018-04-02T03:46:02.171Z,18.9
2018-04-02T03:47:02.161Z,18.9
2018-04-02T03:48:02.254Z,18.87
2018-04-02T03:49:02.174Z,18.86
2018-04-02T03:50:02.192Z,18.89
2018-04-02T03:51:02.188Z,18.86
2018-04-02T03:52:02.165Z,18.87
2018-04-02T03:53:02.176Z,18.88
2018-04-02T03:54:02.181Z,18.85
2018-04-02T03:55:02.178Z,18.87
2018-04-02T03:56:02.158Z,18.88
2018-04-02T03:57:02.188Z,18.87
2018-04-02T03:58:02.144Z,18.88
2018-04-02T03:59:02.179Z,18.88
2018-04-02T04:00:02.176Z,18.88
2018-04-02T04:01:02.147Z,18.89
2018-04-02T04:02:02.466Z,18.92
2018-04-02T04:03:02.186Z,18.93
2018-04-02T04:04:02.166Z,18.94
2018-04-02T04:05:02.155Z,18.96
2018-04-02T04:06:02.156Z,18.97
2018-04-02T04:07:02.192Z,18.98
2018-04-02T04:08:02.177Z,18.97
2018-04-02T04:09:02.161Z,18.99
2018-04-02T04:10:02.144Z,19
2018-04-02T04:11:02.184Z,19.01
2018-04-02T04:12:02.178Z,19.02
2018-04-02T04:13:02.152Z,19.03
2018-04-02T04:14:02.155Z,19.04
2018-04-02T04:15:02.177Z,19.06
2018-04-02T04:16:02.141Z,19.07
2018-04-02T04:17:02.167Z,19.09
2018-04-02T04:18:02.251Z,19.1
2018-04-02T04:19:02.272Z,19.12
2018-04-02T04:20:02.167Z,19.14
2018-04-02T04:21:02.173Z,19.15
2018-04-02T04:22:02.156Z,19.17
2018-04-02T04:23:02.196Z,19.18
2018-04-02T04:24:02.180Z,19.2
2018-04-02T04:25:02.188Z,19.2
2018-04-02T04:26:02.172Z,19.23
2018-04-02T04:27:02.156Z,19.24
2018-04-02T04:28:02.136Z,19.27
2018-04-02T04:29:02.169Z,19.28
2018-04-02T04:30:02.197Z,19.3
2018-04-02T04:31:02.135Z,19.32
2018-04-02T04:32:02.161Z,19.33
2018-04-02T04:33:02.171Z,19.34
2018-04-02T04:34:02.166Z,19.35
2018-04-02T04:35:02.178Z,19.37
2018-04-02T04:36:02.146Z,19.39
2018-04-02T04:37:02.160Z,19.4
2018-04-02T04:38:02.175Z,19.41
2018-04-02T04:39:02.193Z,19.42
2018-04-02T04:40:02.130Z,19.44
2018-04-02T04:41:02.172Z,19.45
2018-04-02T04:42:02.173Z,19.46
2018-04-02T04:43:02.148Z,19.47
2018-04-02T04:44:02.174Z,19.49
2018-04-02T04:45:02.169Z,19.49
2018-04-02T04:46:02.141Z,19.51
2018-04-02T04:47:02.159Z,19.53
2018-04-02T04:48:02.138Z,19.54
2018-04-02T04:49:02.147Z,19.54
2018-04-02T04:50:02.351Z,19.55
2018-04-02T04:51:02.137Z,19.56
2018-04-02T04:52:02.138Z,19.57
2018-04-02T04:53:02.139Z,19.59
2018-04-02T04:54:02.140Z,19.6
2018-04-02T04:55:02.260Z,19.62
2018-04-02T04:56:02.229Z,19.62
2018-04-02T04:57:02.134Z,19.62
2018-04-02T04:58:02.137Z,19.64
2018-04-02T04:59:02.131Z,19.65
2018-04-02T05:00:02.160Z,19.67
2018-04-02T05:01:02.141Z,19.68
2018-04-02T05:02:02.140Z,19.69
2018-04-02T05:03:02.137Z,19.7
2018-04-02T05:04:02.137Z,19.71
2018-04-02T05:05:02.184Z,19.72
2018-04-02T05:06:02.136Z,19.73
2018-04-02T05:07:02.132Z,19.75
2018-04-02T05:08:02.134Z,19.75
2018-04-02T05:09:02.140Z,19.76
2018-04-02T05:10:02.148Z,19.77
2018-04-02T05:11:02.144Z,19.78
2018-04-02T05:12:02.158Z,19.79
2018-04-02T05:13:02.145Z,19.8
2018-04-02T05:14:02.165Z,19.81
2018-04-02T05:15:02.183Z,19.82
2018-04-02T05:16:02.128Z,19.83
2018-04-02T05:17:02.150Z,19.85
2018-04-02T05:18:02.163Z,19.86
2018-04-02T05:19:02.124Z,19.86
2018-04-02T05:20:02.149Z,19.87
2018-04-02T05:21:02.216Z,19.88
2018-04-02T05:22:02.142Z,19.89
2018-04-02T05:23:02.178Z,19.89
2018-04-02T05:24:02.133Z,19.91
2018-04-02T05:25:02.147Z,19.92
2018-04-02T05:26:02.151Z,19.92
2018-04-02T05:27:02.150Z,19.93
2018-04-02T05:28:02.130Z,19.94
2018-04-02T05:29:02.163Z,19.94
2018-04-02T05:30:02.197Z,19.96
2018-04-02T05:31:02.239Z,19.97
2018-04-02T05:32:02.160Z,19.97
2018-04-02T05:33:02.153Z,19.98
2018-04-02T05:34:02.129Z,19.99
2018-04-02T05:35:02.153Z,20
2018-04-02T05:36:02.144Z,19.99
2018-04-02T05:37:02.124Z,20.01
2018-04-02T05:38:02.171Z,20.01
2018-04-02T05:39:02.121Z,20.02
2018-04-02T05:40:02.117Z,20.03
2018-04-02T05:41:01.965Z,20.03
2018-04-02T05:42:02.137Z,20.03
2018-04-02T05:43:02.126Z,20.06
2018-04-02T05:44:02.145Z,20.06
2018-04-02T05:45:02.130Z,20.05
2018-04-02T05:46:02.120Z,20.06
2018-04-02T05:47:02.147Z,20.07
2018-04-02T05:48:02.124Z,20.08
2018-04-02T05:49:02.135Z,20.08
2018-04-02T05:50:02.129Z,20.09
2018-04-02T05:51:02.148Z,20.09
2018-04-02T05:52:02.181Z,20.09
2018-04-02T05:53:02.127Z,20.1
2018-04-02T05:54:02.156Z,20.11
2018-04-02T05:55:02.136Z,20.12
2018-04-02T05:56:02.132Z,20.11
2018-04-02T05:57:02.131Z,20.13
2018-04-02T05:58:02.120Z,20.15
2018-04-02T05:59:02.127Z,20.14
2018-04-02T06:00:02.119Z,20.15
2018-04-02T06:01:02.137Z,20.16
2018-04-02T06:02:02.140Z,20.17
2018-04-02T06:03:02.158Z,20.17
2018-04-02T06:04:02.140Z,20.18
2018-04-02T06:05:02.142Z,20.19
2018-04-02T06:06:02.123Z,20.2
2018-04-02T06:07:02.130Z,20.21
2018-04-02T06:08:02.114Z,20.2
2018-04-02T06:09:02.143Z,20.22
2018-04-02T06:10:02.122Z,20.22
2018-04-02T06:11:02.165Z,20.23
2018-04-02T06:12:02.141Z,20.24
2018-04-02T06:13:02.132Z,20.25
2018-04-02T06:14:02.111Z,20.25
2018-04-02T06:15:02.139Z,20.24
2018-04-02T06:16:02.129Z,20.26
2018-04-02T06:17:02.140Z,20.25
2018-04-02T06:18:02.114Z,20.28
2018-04-02T06:19:02.118Z,20.28
2018-04-02T06:20:02.238Z,20.28
2018-04-02T06:21:02.114Z,20.28
2018-04-02T06:22:02.156Z,20.3
2018-04-02T06:23:02.182Z,20.3
2018-04-02T06:24:02.136Z,20.3
2018-04-02T06:25:02.145Z,20.31
2018-04-02T06:26:02.134Z,20.31
2018-04-02T06:27:02.107Z,20.32
2018-04-02T06:28:02.111Z,20.32
2018-04-02T06:29:02.156Z,20.33
2018-04-02T06:30:02.129Z,20.33
2018-04-02T06:31:02.161Z,20.33
2018-04-02T06:32:02.113Z,20.33
2018-04-02T06:33:02.126Z,20.35
2018-04-02T06:34:02.387Z,20.34
2018-04-02T06:35:02.139Z,20.35
2018-04-02T06:36:02.141Z,20.36
2018-04-02T06:37:02.187Z,20.36
2018-04-02T06:38:02.101Z,20.36
2018-04-02T06:39:02.160Z,20.36
2018-04-02T06:40:02.148Z,20.38
2018-04-02T06:41:02.120Z,20.38
2018-04-02T06:42:02.107Z,20.38
2018-04-02T06:43:02.113Z,20.39
2018-04-02T06:44:02.134Z,20.39
2018-04-02T06:45:02.111Z,20.4
2018-04-02T06:46:02.099Z,20.4
2018-04-02T06:47:02.103Z,20.4
2018-04-02T06:48:02.104Z,20.4
2018-04-02T06:49:02.136Z,20.42
2018-04-02T06:50:02.132Z,20.42
2018-04-02T06:51:02.128Z,20.42
2018-04-02T06:52:02.093Z,20.33
2018-04-02T06:53:02.100Z,20.22
2018-04-02T06:54:02.212Z,20.11
2018-04-02T06:55:02.095Z,20.1
2018-04-02T06:56:02.220Z,20.07
2018-04-02T06:57:02.222Z,20.04
2018-04-02T06:58:02.115Z,20.03
2018-04-02T06:59:02.118Z,19.99
2018-04-02T07:00:02.119Z,19.94
2018-04-02T07:01:02.152Z,19.91
2018-04-02T07:02:02.125Z,19.92
2018-04-02T07:03:02.116Z,19.96
2018-04-02T07:04:02.128Z,19.99
2018-04-02T07:05:02.126Z,20.02
2018-04-02T07:06:02.120Z,20.06
2018-04-02T07:07:02.113Z,20.08
2018-04-02T07:08:02.126Z,20.1
2018-04-02T07:09:02.124Z,20.13
2018-04-02T07:10:02.131Z,20.16
2018-04-02T07:11:02.166Z,20.17
2018-04-02T07:12:02.101Z,20.19
2018-04-02T07:13:02.098Z,20.21
2018-04-02T07:14:02.121Z,20.23
2018-04-02T07:15:02.123Z,20.24
2018-04-02T07:16:02.125Z,20.27
2018-04-02T07:17:02.134Z,20.28
2018-04-02T07:18:02.101Z,20.29
2018-04-02T07:19:02.085Z,20.3
2018-04-02T07:20:02.132Z,20.31
2018-04-02T07:21:02.091Z,20.28
2018-04-02T07:22:02.107Z,20.31
2018-04-02T07:23:02.169Z,20.33
2018-04-02T07:24:02.118Z,20.35
2018-04-02T07:25:02.164Z,20.36
2018-04-02T07:26:02.120Z,20.37
2018-04-02T07:27:02.120Z,20.37
2018-04-02T07:28:02.104Z,20.38
2018-04-02T07:29:02.095Z,20.38
2018-04-02T07:30:02.096Z,20.39
2018-04-02T07:31:02.092Z,20.4
2018-04-02T07:32:02.118Z,20.4
2018-04-02T07:33:02.113Z,20.39
2018-04-02T07:34:02.095Z,20.42
2018-04-02T07:35:07.872Z,20.4
2018-04-02T07:36:02.117Z,20.42
2018-04-02T07:37:02.098Z,20.42
2018-04-02T07:38:02.086Z,20.42
2018-04-02T07:39:02.083Z,20.42
2018-04-02T07:40:02.106Z,20.43
2018-04-02T07:41:02.079Z,20.43
2018-04-02T07:42:02.097Z,20.45
2018-04-02T07:43:02.097Z,20.45
2018-04-02T07:44:02.120Z,20.45
2018-04-02T07:45:02.378Z,20.45
2018-04-02T07:46:02.103Z,20.46
2018-04-02T07:47:02.141Z,20.46
2018-04-02T07:48:02.097Z,20.47
2018-04-02T07:49:02.099Z,20.47
2018-04-02T07:50:02.129Z,20.47
2018-04-02T07:51:02.108Z,20.49
2018-04-02T07:52:02.114Z,20.49
2018-04-02T07:53:02.099Z,20.49
2018-04-02T07:54:02.103Z,20.49
2018-04-02T07:55:02.108Z,20.51
2018-04-02T07:56:02.158Z,20.51
2018-04-02T07:57:02.128Z,20.51
2018-04-02T07:58:02.081Z,20.52
2018-04-02T07:59:02.080Z,20.52
2018-04-02T08:00:02.102Z,20.52
2018-04-02T08:01:02.078Z,20.54
2018-04-02T08:02:02.130Z,20.53
2018-04-02T08:03:02.102Z,20.55
2018-04-02T08:04:02.080Z,20.55
2018-04-02T08:05:02.104Z,20.55
2018-04-02T08:06:02.097Z,20.55
2018-04-02T08:07:02.099Z,20.57
2018-04-02T08:08:02.105Z,20.57
2018-04-02T08:09:02.101Z,20.57
2018-04-02T08:10:02.086Z,20.59
2018-04-02T08:11:02.101Z,20.58
2018-04-02T08:12:02.152Z,20.58
2018-04-02T08:13:02.091Z,20.6
2018-04-02T08:14:02.104Z,20.6
2018-04-02T08:15:02.096Z,20.6
2018-04-02T08:16:02.095Z,20.62
2018-04-02T08:17:02.128Z,20.62
2018-04-02T08:18:02.133Z,20.62
2018-04-02T08:19:02.074Z,20.62
2018-04-02T08:20:02.112Z,20.63
2018-04-02T08:21:02.080Z,20.63
2018-04-02T08:22:02.147Z,20.64
2018-04-02T08:23:02.100Z,20.65
2018-04-02T08:24:02.100Z,20.65
2018-04-02T08:25:02.095Z,20.65
2018-04-02T08:26:02.099Z,20.65
2018-04-02T08:27:02.217Z,20.65
2018-04-02T08:28:02.107Z,20.67
2018-04-02T08:29:02.111Z,20.66
2018-04-02T08:30:02.075Z,20.67
2018-04-02T08:31:02.072Z,20.68
2018-04-02T08:32:02.105Z,20.68
2018-04-02T08:33:02.267Z,20.68
2018-04-02T08:34:02.073Z,20.68
2018-04-02T08:35:02.101Z,20.68
2018-04-02T08:36:02.054Z,20.69
2018-04-02T08:37:02.117Z,20.7
2018-04-02T08:38:02.069Z,20.7
2018-04-02T08:39:02.090Z,20.7
2018-04-02T08:40:02.067Z,20.71
2018-04-02T08:41:02.096Z,20.71
2018-04-02T08:42:02.095Z,20.71
2018-04-02T08:43:02.082Z,20.71
2018-04-02T08:44:02.078Z,20.7
2018-04-02T08:45:02.114Z,20.7
2018-04-02T08:46:02.084Z,20.71
2018-04-02T08:47:02.091Z,20.7
2018-04-02T08:48:02.087Z,20.71
2018-04-02T08:49:02.067Z,20.71
2018-04-02T08:50:02.101Z,20.71
2018-04-02T08:51:02.077Z,20.7
2018-04-02T08:52:02.095Z,20.71
2018-04-02T08:53:02.062Z,20.7
2018-04-02T08:54:02.093Z,20.7
2018-04-02T08:55:02.127Z,20.71
2018-04-02T08:56:02.072Z,20.71
2018-04-02T08:57:02.168Z,20.7
2018-04-02T08:58:02.253Z,20.72
2018-04-02T08:59:02.089Z,20.7
2018-04-02T09:00:02.126Z,20.69
2018-04-02T09:01:02.070Z,20.71
2018-04-02T09:02:02.066Z,20.7
2018-04-02T09:03:02.065Z,20.7
2018-04-02T09:04:02.121Z,20.71
2018-04-02T09:05:02.125Z,20.7
2018-04-02T09:06:02.089Z,20.71
2018-04-02T09:07:02.061Z,20.7
2018-04-02T09:08:02.072Z,20.69
2018-04-02T09:09:02.056Z,20.65
2018-04-02T09:10:02.080Z,20.68
2018-04-02T09:11:02.033Z,20.69
2018-04-02T09:12:02.087Z,20.68
2018-04-02T09:13:02.049Z,20.69
2018-04-02T09:14:02.063Z,20.69
2018-04-02T09:15:02.091Z,20.69
2018-04-02T09:16:02.061Z,20.71
2018-04-02T09:17:02.090Z,20.7
2018-04-02T09:18:02.064Z,20.72
2018-04-02T09:19:02.055Z,20.71
2018-04-02T09:20:02.087Z,20.72
2018-04-02T09:21:02.085Z,20.72
2018-04-02T09:22:02.051Z,20.73
2018-04-02T09:23:02.083Z,20.73
2018-04-02T09:24:02.054Z,20.74
2018-04-02T09:25:02.071Z,20.75
2018-04-02T09:26:02.084Z,20.74
2018-04-02T09:27:02.096Z,20.76
2018-04-02T09:28:02.057Z,20.77
2018-04-02T09:29:02.125Z,20.77
2018-04-02T09:30:02.082Z,20.77
2018-04-02T09:31:02.088Z,20.78
2018-04-02T09:32:02.060Z,20.78
2018-04-02T09:33:02.081Z,20.78
2018-04-02T09:34:02.073Z,20.78
2018-04-02T09:35:02.076Z,20.78
2018-04-02T09:36:02.106Z,20.78
2018-04-02T09:37:02.133Z,20.78
2018-04-02T09:38:02.069Z,20.77
2018-04-02T09:39:02.086Z,20.78
2018-04-02T09:40:02.050Z,20.79
2018-04-02T09:41:02.107Z,20.79
2018-04-02T09:42:02.073Z,20.79
2018-04-02T09:43:02.054Z,20.8
2018-04-02T09:44:02.074Z,20.81
2018-04-02T09:45:02.156Z,20.81
2018-04-02T09:46:02.078Z,20.82
2018-04-02T09:47:02.037Z,20.82
2018-04-02T09:48:02.076Z,20.82
2018-04-02T09:49:02.064Z,20.82
2018-04-02T09:50:02.070Z,20.83
2018-04-02T09:51:02.251Z,20.83
2018-04-02T09:52:02.072Z,20.83
2018-04-02T09:53:02.049Z,20.85
2018-04-02T09:54:02.056Z,20.86
2018-04-02T09:55:02.057Z,20.87
2018-04-02T09:56:02.105Z,20.86
2018-04-02T09:57:02.070Z,20.88
2018-04-02T09:58:02.052Z,20.89
2018-04-02T09:59:02.069Z,20.89
2018-04-02T10:00:02.212Z,20.9
2018-04-02T10:01:02.208Z,20.9
2018-04-02T10:02:04.156Z,20.91
2018-04-02T10:03:02.049Z,20.9
2018-04-02T10:04:02.053Z,20.92
2018-04-02T10:05:02.175Z,20.92
2018-04-02T10:06:02.088Z,20.94
2018-04-02T10:07:02.038Z,20.95
2018-04-02T10:08:02.049Z,20.94
2018-04-02T10:09:02.076Z,20.95
2018-04-02T10:10:02.140Z,20.94
2018-04-02T10:11:02.066Z,20.95
2018-04-02T10:12:02.095Z,20.95
2018-04-02T10:13:02.033Z,20.95
2018-04-02T10:14:02.039Z,20.96
2018-04-02T10:15:02.043Z,20.96
2018-04-02T10:16:02.055Z,20.96
2018-04-02T10:17:02.068Z,20.97
2018-04-02T10:18:02.059Z,20.97
2018-04-02T10:19:02.070Z,20.98
2018-04-02T10:20:02.068Z,20.98
2018-04-02T10:21:02.087Z,20.99
2018-04-02T10:22:02.057Z,21
2018-04-02T10:23:02.061Z,21.01
2018-04-02T10:24:02.132Z,21.02
2018-04-02T10:25:02.047Z,21.02
2018-04-02T10:26:02.065Z,21.03
2018-04-02T10:27:02.082Z,21.04
2018-04-02T10:28:02.066Z,21.05
2018-04-02T10:29:02.068Z,21.05
2018-04-02T10:30:02.121Z,21.04
2018-04-02T10:31:02.396Z,21.05
2018-04-02T10:32:02.040Z,21.04
2018-04-02T10:33:02.062Z,21.05
2018-04-02T10:34:02.085Z,21.05
2018-04-02T10:35:02.087Z,21.05
2018-04-02T10:36:02.070Z,21.05
2018-04-02T10:37:02.066Z,21.07
2018-04-02T10:38:08.437Z,21.06
2018-04-02T10:39:02.064Z,21.06
2018-04-02T10:40:02.078Z,21.07
2018-04-02T10:41:02.043Z,21.06
2018-04-02T10:42:02.062Z,21.07
2018-04-02T10:43:02.064Z,21.08
2018-04-02T10:44:02.057Z,21.07
2018-04-02T10:45:02.044Z,21.07
2018-04-02T10:46:02.057Z,21.08
2018-04-02T10:47:02.063Z,21.08
2018-04-02T10:48:02.090Z,21.08
2018-04-02T10:49:02.063Z,21.09
2018-04-02T10:50:02.036Z,21.08
2018-04-02T10:51:02.055Z,21.07
2018-04-02T10:51:25.446Z,21.18
2018-04-02T10:52:25.429Z,21.25
2018-04-02T11:12:10.627Z,21.62
2018-04-02T11:13:10.592Z,21.62
2018-04-02T11:14:10.577Z,21.56
2018-04-02T11:15:10.614Z,21.55
2018-04-02T11:16:10.588Z,21.56
2018-04-02T11:17:10.578Z,21.55
2018-04-02T11:18:10.590Z,21.5
2018-04-02T11:19:10.600Z,21.48
2018-04-02T11:20:10.631Z,21.44
2018-04-02T11:21:10.579Z,21.42
2018-04-02T11:22:10.607Z,21.41
2018-04-02T11:23:10.587Z,21.4
2018-04-02T11:24:10.593Z,21.35
2018-04-02T11:25:10.583Z,21.42
2018-04-02T11:26:10.595Z,21.46
2018-04-02T11:27:10.600Z,21.49
2018-04-02T11:27:42.573Z,21.49
2018-04-02T11:28:42.539Z,21.52
2018-04-02T11:29:33.923Z,21.52
2018-04-02T11:30:33.914Z,21.55
2018-04-02T11:31:33.969Z,21.57
2018-04-02T11:32:33.927Z,21.58
2018-04-02T11:33:33.936Z,21.59
2018-04-02T11:34:33.928Z,21.57
2018-04-02T11:35:33.892Z,21.59
2018-04-02T11:36:33.925Z,21.61
2018-04-02T11:37:33.924Z,21.58
2018-04-02T11:38:33.903Z,21.56
2018-04-02T11:39:33.921Z,21.55
2018-04-02T11:40:33.920Z,21.51
2018-04-02T11:41:33.899Z,21.51
2018-04-02T11:42:33.953Z,21.52
2018-04-02T11:43:33.905Z,21.49
2018-04-02T11:44:33.900Z,21.48
2018-04-02T11:45:33.923Z,21.48
2018-04-02T11:46:33.914Z,21.47
2018-04-02T11:47:33.930Z,21.47
2018-04-02T11:48:42.580Z,21.55
2018-04-02T11:49:42.596Z,21.59
2018-04-02T11:50:42.594Z,21.6
2018-04-02T11:51:42.604Z,21.63
2018-04-02T11:52:42.601Z,21.65
2018-04-02T11:53:42.611Z,21.65
2018-04-02T11:54:42.583Z,21.67
2018-04-02T11:55:56.474Z,21.71
2018-04-02T11:56:56.458Z,21.7
2018-04-02T11:57:56.428Z,21.71
2018-04-02T11:58:56.440Z,21.73
2018-04-02T11:59:56.431Z,21.75
2018-04-02T12:00:56.427Z,21.76
2018-04-02T12:01:56.432Z,21.74
2018-04-02T12:02:56.474Z,21.8
2018-04-02T12:03:56.485Z,21.76
2018-04-02T12:04:56.437Z,21.75
2018-04-02T12:05:56.454Z,21.78
2018-04-02T12:06:56.434Z,21.72
2018-04-02T12:07:56.473Z,21.69
2018-04-02T12:08:56.447Z,21.68
2018-04-02T12:09:56.442Z,21.65
2018-04-02T12:10:56.421Z,21.63
2018-04-02T12:11:56.445Z,21.61
2018-04-02T12:12:56.466Z,21.68
2018-04-02T12:13:56.412Z,21.75
2018-04-02T12:14:56.446Z,21.75
2018-04-02T12:15:56.470Z,21.77
2018-04-02T12:16:56.446Z,21.88
2018-04-02T12:17:56.422Z,21.81
2018-04-02T12:18:56.287Z,21.85
2018-04-02T12:19:56.463Z,21.92
2018-04-02T12:20:56.489Z,21.97
2018-04-02T12:21:56.425Z,21.93
2018-04-02T12:22:56.494Z,21.9
2018-04-02T12:23:56.440Z,21.89
2018-04-02T12:24:56.712Z,21.87
2018-04-02T12:25:56.507Z,21.86
2018-04-02T12:26:56.450Z,21.89
2018-04-02T12:27:56.441Z,21.89
2018-04-02T12:28:56.431Z,21.88
2018-04-02T12:29:56.466Z,21.89
2018-04-02T12:30:56.445Z,21.89
2018-04-02T12:31:56.433Z,21.87
2018-04-02T12:32:56.455Z,21.87
2018-04-02T12:33:56.453Z,21.85
2018-04-02T12:34:56.450Z,21.89
2018-04-02T12:35:56.474Z,21.86
2018-04-02T12:36:56.612Z,21.84
2018-04-02T12:37:56.425Z,21.84
2018-04-02T12:38:56.425Z,21.85
2018-04-02T12:39:56.434Z,21.82
2018-04-02T12:40:56.414Z,21.78
2018-04-02T12:41:56.476Z,21.76
2018-04-02T12:42:56.464Z,21.72
2018-04-02T12:43:56.438Z,21.71
2018-04-02T12:44:56.422Z,21.69
2018-04-02T12:45:56.446Z,21.67
2018-04-02T12:46:56.730Z,21.65
2018-04-02T12:47:56.461Z,21.64
2018-04-02T12:48:56.419Z,21.62
2018-04-02T12:49:56.423Z,21.6
2018-04-02T12:50:56.421Z,21.6
2018-04-02T12:51:56.451Z,21.57
2018-04-02T12:52:56.420Z,21.56
2018-04-02T12:53:56.428Z,21.55
2018-04-02T12:54:56.454Z,21.55
2018-04-02T12:55:56.436Z,21.53
2018-04-02T12:56:56.750Z,21.51
2018-04-02T12:57:56.442Z,21.51
2018-04-02T12:58:56.463Z,21.5
2018-04-02T12:59:56.457Z,21.5
2018-04-02T13:00:56.447Z,21.5
2018-04-02T13:01:56.465Z,21.5
2018-04-02T13:02:56.441Z,21.5
2018-04-02T13:03:56.430Z,21.49
2018-04-02T13:04:56.434Z,21.48
2018-04-02T13:05:56.429Z,21.48
2018-04-02T13:06:56.452Z,21.47
2018-04-02T13:07:56.420Z,21.47
2018-04-02T13:08:56.428Z,21.47
2018-04-02T13:09:56.427Z,21.46
2018-04-02T13:10:56.414Z,21.45
2018-04-02T13:11:56.428Z,21.45
2018-04-02T13:12:56.426Z,21.44
2018-04-02T13:13:56.449Z,21.44